Time;durP1;ratioP1;P1;durP2;ratioP2;P2;SDS_P1;SDS_P2;PMS_P1;PMS_P2;Temp;Humidity;BMP_temperature;BMP_pressure;BME280_temperature;BME280_humidity;BME280_pressure;Samples;Min_cycle;Max_cycle;Signal;HPM_P1;HPM_P2
2024/01/07 00:00:21;;;;;;;236.27;215.35;;;;;;;;;;5054422;28;20021;-66
2024/01/07 00:02:48;;;;;;;232.40;211.95;;;;;;;;;;5055871;28;20381;-66
2024/01/07 00:05:15;;;;;;;229.00;209.07;;;;;;;;;;5055593;28;20052;-67
2024/01/07 00:07:41;;;;;;;245.80;223.57;;;;;;;;;;5055866;28;20041;-67
2024/01/07 00:10:09;;;;;;;239.15;217.80;;;;;;;;;;5055267;28;20071;-68
2024/01/07 00:12:36;;;;;;;244.63;222.68;;;;;;;;;;5055215;28;20494;-67
2024/01/07 00:15:02;;;;;;;266.60;242.45;;;;;;;;;;5053717;28;20087;-67
2024/01/07 00:17:29;;;;;;;305.13;275.92;;;;;;;;;;5055157;28;20078;-67
2024/01/07 00:19:56;;;;;;;266.88;241.90;;;;;;;;;;5055259;28;20390;-67
2024/01/07 00:22:22;;;;;;;247.82;225.05;;;;;;;;;;5055437;28;20021;-67
2024/01/07 00:24:49;;;;;;;264.27;239.18;;;;;;;;;;5055261;28;20032;-66
2024/01/07 00:27:15;;;;;;;265.63;241.55;;;;;;;;;;5054899;28;20021;-67
2024/01/07 00:29:42;;;;;;;260.92;236.88;;;;;;;;;;5055185;28;20021;-67
2024/01/07 00:32:08;;;;;;;272.13;247.13;;;;;;;;;;5055113;28;20047;-68
2024/01/07 00:34:35;;;;;;;261.60;237.93;;;;;;;;;;5054938;28;20044;-67
2024/01/07 00:37:02;;;;;;;274.42;248.95;;;;;;;;;;5054985;28;20029;-68
2024/01/07 00:39:28;;;;;;;255.60;232.45;;;;;;;;;;5054783;28;20048;-68
2024/01/07 00:41:55;;;;;;;271.67;246.77;;;;;;;;;;5054666;28;20025;-67
2024/01/07 00:44:21;;;;;;;246.68;224.75;;;;;;;;;;5054975;28;20107;-68
2024/01/07 00:46:48;;;;;;;260.17;236.35;;;;;;;;;;5054678;28;20036;-68
2024/01/07 00:49:15;;;;;;;236.52;215.25;;;;;;;;;;5054711;28;20021;-68
2024/01/07 00:51:41;;;;;;;235.05;214.55;;;;;;;;;;5054543;28;20021;-68
2024/01/07 00:54:08;;;;;;;245.93;223.70;;;;;;;;;;5054254;28;20066;-68
2024/01/07 00:56:34;;;;;;;241.10;219.82;;;;;;;;;;5054377;28;20160;-68
2024/01/07 00:59:02;;;;;;;246.70;225.15;;;;;;;;;;5054724;28;20032;-68
2024/01/07 01:01:28;;;;;;;256.33;232.82;;;;;;;;;;5054537;28;20043;-68
2024/01/07 01:03:55;;;;;;;239.93;218.80;;;;;;;;;;5054307;28;20052;-67
2024/01/07 01:06:22;;;;;;;246.70;224.85;;;;;;;;;;5054541;28;20116;-68
2024/01/07 01:08:48;;;;;;;250.20;227.77;;;;;;;;;;5054143;28;20037;-68
2024/01/07 01:11:15;;;;;;;239.68;218.15;;;;;;;;;;5054250;28;20029;-68
2024/01/07 01:13:42;;;;;;;243.30;221.10;;;;;;;;;;5054222;28;20474;-68
2024/01/07 01:16:08;;;;;;;262.17;238.88;;;;;;;;;;5054403;28;20059;-68
2024/01/07 01:18:35;;;;;;;251.20;228.40;;;;;;;;;;5053918;28;20040;-66
2024/01/07 01:21:02;;;;;;;243.00;220.70;;;;;;;;;;5048069;28;20032;-66
2024/01/07 01:23:28;;;;;;;263.27;238.88;;;;;;;;;;5053878;28;20033;-66
2024/01/07 01:25:55;;;;;;;261.48;237.60;;;;;;;;;;5053536;28;20021;-67
2024/01/07 01:28:21;;;;;;;251.38;228.50;;;;;;;;;;5053933;28;20025;-67
2024/01/07 01:30:48;;;;;;;245.40;223.25;;;;;;;;;;5053833;28;20029;-66
2024/01/07 01:33:14;;;;;;;225.38;205.57;;;;;;;;;;5053652;28;20469;-66
2024/01/07 01:35:41;;;;;;;241.20;219.60;;;;;;;;;;5053788;28;20025;-67
2024/01/07 01:38:08;;;;;;;223.57;204.02;;;;;;;;;;5054262;28;20017;-67
2024/01/07 01:40:34;;;;;;;217.32;198.27;;;;;;;;;;5053593;28;20024;-67
2024/01/07 01:43:01;;;;;;;259.60;236.02;;;;;;;;;;5053761;28;20025;-66
2024/01/07 01:45:27;;;;;;;280.42;253.85;;;;;;;;;;5053841;28;20017;-66
2024/01/07 01:47:54;;;;;;;257.02;233.85;;;;;;;;;;5053687;28;20060;-68
2024/01/07 01:50:21;;;;;;;228.02;208.27;;;;;;;;;;5034239;28;20079;-66
2024/01/07 01:52:49;;;;;;;238.10;217.07;;;;;;;;;;5033799;28;20413;-67
2024/01/07 01:55:15;;;;;;;236.93;215.82;;;;;;;;;;5052432;28;20025;-66
2024/01/07 01:57:42;;;;;;;228.73;207.90;;;;;;;;;;5033535;28;20026;-66
2024/01/07 02:00:09;;;;;;;253.48;231.10;;;;;;;;;;5046068;28;20386;-67
2024/01/07 02:02:35;;;;;;;232.02;211.90;;;;;;;;;;5053298;28;20397;-66
2024/01/07 02:05:03;;;;;;;259.80;236.43;;;;;;;;;;5053590;28;20062;-68
2024/01/07 02:07:30;;;;;;;234.90;214.00;;;;;;;;;;5046821;28;20458;-67
2024/01/07 02:09:57;;;;;;;251.82;229.15;;;;;;;;;;5050717;28;20059;-67
2024/01/07 02:12:24;;;;;;;252.63;230.05;;;;;;;;;;5053210;28;20470;-67
2024/01/07 02:14:50;;;;;;;250.18;227.95;;;;;;;;;;5053413;28;20052;-67
2024/01/07 02:17:17;;;;;;;242.68;220.70;;;;;;;;;;5053479;28;20028;-67
2024/01/07 02:19:44;;;;;;;232.52;211.82;;;;;;;;;;5053163;28;20106;-67
2024/01/07 02:22:11;;;;;;;252.98;230.38;;;;;;;;;;5053413;28;20478;-66
2024/01/07 02:24:37;;;;;;;223.02;203.43;;;;;;;;;;5053164;28;20036;-67
2024/01/07 02:27:04;;;;;;;239.80;218.70;;;;;;;;;;5052792;28;20060;-68
2024/01/07 02:29:30;;;;;;;234.48;213.50;;;;;;;;;;5053078;28;20028;-67
2024/01/07 02:31:57;;;;;;;262.48;239.07;;;;;;;;;;5053283;28;20052;-68
2024/01/07 02:34:24;;;;;;;245.20;223.38;;;;;;;;;;5053053;28;20017;-70
2024/01/07 02:36:50;;;;;;;242.93;221.77;;;;;;;;;;5048940;28;20021;-67
2024/01/07 02:39:17;;;;;;;237.75;217.00;;;;;;;;;;5053271;28;20115;-67
2024/01/07 02:41:43;;;;;;;242.07;220.82;;;;;;;;;;5057161;28;20074;-67
2024/01/07 02:44:10;;;;;;;232.40;211.95;;;;;;;;;;5057080;28;20501;-68
2024/01/07 02:46:37;;;;;;;244.40;223.00;;;;;;;;;;5056773;28;20079;-66
2024/01/07 02:49:03;;;;;;;256.00;233.23;;;;;;;;;;5057142;28;20358;-68
2024/01/07 02:51:30;;;;;;;226.23;206.55;;;;;;;;;;5056890;28;20032;-67
2024/01/07 02:53:56;;;;;;;247.57;225.43;;;;;;;;;;5056752;28;20029;-67
2024/01/07 02:56:23;;;;;;;243.95;223.05;;;;;;;;;;5056667;28;20029;-67
2024/01/07 02:58:49;;;;;;;225.10;205.40;;;;;;;;;;5056179;28;20130;-68
2024/01/07 03:01:16;;;;;;;203.68;185.77;;;;;;;;;;5056956;28;20033;-65
2024/01/07 03:03:43;;;;;;;235.27;214.70;;;;;;;;;;5050819;28;20049;-66
2024/01/07 03:06:09;;;;;;;249.90;227.65;;;;;;;;;;5046662;28;20025;-65
2024/01/07 03:08:36;;;;;;;265.83;241.70;;;;;;;;;;5056899;28;20024;-66
2024/01/07 03:11:11;;;;;;;263.83;240.00;;;;;;;;;;5056833;28;20417;-65
2024/01/07 03:13:38;;;;;;;220.30;200.57;;;;;;;;;;5056609;28;20021;-67
2024/01/07 03:16:05;;;;;;;265.75;241.45;;;;;;;;;;5056719;28;20017;-68
2024/01/07 03:18:31;;;;;;;240.23;219.02;;;;;;;;;;5056372;28;20021;-65
2024/01/07 03:20:58;;;;;;;244.70;223.18;;;;;;;;;;5056179;28;20037;-65
2024/01/07 03:23:24;;;;;;;247.68;225.50;;;;;;;;;;5056752;28;20189;-65
2024/01/07 03:25:51;;;;;;;240.23;218.75;;;;;;;;;;5056892;28;20024;-65
2024/01/07 03:28:17;;;;;;;228.63;208.32;;;;;;;;;;5056577;28;20082;-65
2024/01/07 03:30:44;;;;;;;237.48;215.90;;;;;;;;;;5056159;28;20013;-65
2024/01/07 03:33:11;;;;;;;262.98;238.20;;;;;;;;;;5056171;28;20021;-64
2024/01/07 03:35:37;;;;;;;232.90;211.75;;;;;;;;;;5056019;28;20021;-64
2024/01/07 03:38:04;;;;;;;251.07;227.77;;;;;;;;;;5055761;28;20028;-65
2024/01/07 03:40:31;;;;;;;238.70;217.52;;;;;;;;;;5056003;28;20028;-64
2024/01/07 03:42:57;;;;;;;227.13;207.30;;;;;;;;;;5055888;28;20020;-64
2024/01/07 03:45:24;;;;;;;242.65;221.02;;;;;;;;;;5055996;28;20048;-65
2024/01/07 03:47:51;;;;;;;219.70;200.60;;;;;;;;;;5055919;28;20036;-65
2024/01/07 03:50:18;;;;;;;194.27;177.35;;;;;;;;;;5054564;28;20025;-65
2024/01/07 03:52:44;;;;;;;188.55;172.35;;;;;;;;;;5055875;28;20029;-64
2024/01/07 03:55:11;;;;;;;248.43;225.98;;;;;;;;;;5055741;28;20025;-65
2024/01/07 03:57:38;;;;;;;239.27;218.27;;;;;;;;;;5056227;28;20390;-65
2024/01/07 04:00:04;;;;;;;244.80;223.00;;;;;;;;;;5055607;28;20025;-66
2024/01/07 04:02:31;;;;;;;247.50;225.45;;;;;;;;;;5055779;28;20107;-65
2024/01/07 04:04:58;;;;;;;233.77;213.35;;;;;;;;;;5055361;28;20053;-65
2024/01/07 04:07:25;;;;;;;234.48;214.02;;;;;;;;;;5055392;28;20052;-65
2024/01/07 04:09:51;;;;;;;253.35;230.45;;;;;;;;;;5055231;28;20033;-65
2024/01/07 04:12:18;;;;;;;340.73;305.45;;;;;;;;;;5055943;28;20025;-65
2024/01/07 04:14:45;;;;;;;281.95;255.80;;;;;;;;;;5055304;28;20025;-66
2024/01/07 04:17:11;;;;;;;224.98;205.27;;;;;;;;;;5055435;28;20106;-66
2024/01/07 04:19:38;;;;;;;229.38;209.00;;;;;;;;;;5055037;28;20060;-67
2024/01/07 04:22:05;;;;;;;219.88;200.32;;;;;;;;;;5055308;28;20061;-66
2024/01/07 04:24:31;;;;;;;240.32;219.30;;;;;;;;;;5055048;28;20035;-66
2024/01/07 04:26:58;;;;;;;234.32;213.40;;;;;;;;;;5052070;28;20029;-65
2024/01/07 04:29:25;;;;;;;242.73;221.30;;;;;;;;;;5054658;28;20025;-66
2024/01/07 04:31:51;;;;;;;271.27;247.07;;;;;;;;;;5054648;28;20017;-69
2024/01/07 04:34:18;;;;;;;219.52;200.57;;;;;;;;;;5051798;28;20410;-64
2024/01/07 04:36:44;;;;;;;260.58;238.02;;;;;;;;;;5053733;28;20032;-64
2024/01/07 04:39:11;;;;;;;247.85;226.32;;;;;;;;;;5054061;28;20128;-66
2024/01/07 04:41:38;;;;;;;287.27;259.92;;;;;;;;;;5052612;28;20021;-65
2024/01/07 04:44:04;;;;;;;223.50;203.65;;;;;;;;;;5053556;28;20024;-66
2024/01/07 04:46:35;;;;;;;199.48;182.27;;;;;;;;;;5054148;28;20037;-65
2024/01/07 04:49:01;;;;;;;228.07;207.80;;;;;;;;;;5053740;28;20402;-65
2024/01/07 04:51:28;;;;;;;225.05;205.15;;;;;;;;;;5054061;28;20415;-65
2024/01/07 04:53:54;;;;;;;259.92;236.38;;;;;;;;;;5054215;28;20040;-65
2024/01/07 04:56:21;;;;;;;267.55;242.75;;;;;;;;;;5053978;28;20025;-67
2024/01/07 04:58:48;;;;;;;309.90;281.08;;;;;;;;;;5053620;28;20421;-67
2024/01/07 05:01:14;;;;;;;291.33;263.15;;;;;;;;;;5053169;28;20023;-67
2024/01/07 05:03:41;;;;;;;261.35;237.45;;;;;;;;;;5053774;28;20048;-66
2024/01/07 05:06:10;;;;;;;261.70;237.77;;;;;;;;;;5053693;28;20466;-67
2024/01/07 05:08:37;;;;;;;258.15;233.93;;;;;;;;;;5054672;28;20017;-67
2024/01/07 05:11:06;;;;;;;233.30;212.63;;;;;;;;;;5054360;28;20024;-67
2024/01/07 05:13:33;;;;;;;239.95;218.77;;;;;;;;;;5053760;28;20048;-65
2024/01/07 05:15:59;;;;;;;255.80;232.93;;;;;;;;;;5051229;28;20033;-65
2024/01/07 05:18:26;;;;;;;246.80;224.95;;;;;;;;;;5053680;28;20029;-70
2024/01/07 05:20:53;;;;;;;225.98;206.15;;;;;;;;;;5052950;28;20032;-73
2024/01/07 05:23:19;;;;;;;238.07;217.70;;;;;;;;;;5052368;28;20025;-71
2024/01/07 05:25:46;;;;;;;234.07;213.70;;;;;;;;;;5053510;28;20049;-70
2024/01/07 05:28:13;;;;;;;247.80;225.80;;;;;;;;;;5053301;28;20543;-64
2024/01/07 05:30:40;;;;;;;217.40;198.70;;;;;;;;;;5052310;28;20033;-65
2024/01/07 05:33:06;;;;;;;232.48;212.13;;;;;;;;;;5051488;28;20021;-65
2024/01/07 05:35:33;;;;;;;250.40;228.05;;;;;;;;;;5053257;28;20020;-65
2024/01/07 05:38:00;;;;;;;224.18;204.57;;;;;;;;;;5053293;28;20060;-64
2024/01/07 05:40:26;;;;;;;242.50;220.82;;;;;;;;;;5050876;28;20032;-64
2024/01/07 05:42:53;;;;;;;261.35;237.93;;;;;;;;;;5053358;28;20037;-65
2024/01/07 05:45:20;;;;;;;255.23;232.20;;;;;;;;;;5053917;28;20037;-65
2024/01/07 05:47:46;;;;;;;248.40;225.32;;;;;;;;;;5047849;28;20017;-66
2024/01/07 05:50:15;;;;;;;270.52;245.23;;;;;;;;;;5051105;28;20013;-66
2024/01/07 05:52:44;;;;;;;208.35;190.05;;;;;;;;;;5053269;28;20139;-64
2024/01/07 05:55:11;;;;;;;234.57;213.43;;;;;;;;;;5053152;28;20029;-66
2024/01/07 05:57:37;;;;;;;266.20;241.30;;;;;;;;;;5052847;28;20436;-66
2024/01/07 06:00:04;;;;;;;233.13;212.35;;;;;;;;;;5052799;28;20032;-66
2024/01/07 06:02:31;;;;;;;289.88;262.60;;;;;;;;;;5052919;28;20029;-65
2024/01/07 06:04:57;;;;;;;245.70;223.40;;;;;;;;;;5052915;28;20051;-66
2024/01/07 06:07:24;;;;;;;250.73;228.32;;;;;;;;;;5052444;28;20021;-65
2024/01/07 06:09:50;;;;;;;251.68;228.93;;;;;;;;;;5051752;28;20017;-65
2024/01/07 06:12:17;;;;;;;244.20;222.45;;;;;;;;;;5051532;28;20021;-68
2024/01/07 06:14:43;;;;;;;230.95;210.65;;;;;;;;;;5052934;28;20029;-67
2024/01/07 06:17:10;;;;;;;244.38;222.57;;;;;;;;;;5053098;28;20036;-65
2024/01/07 06:19:37;;;;;;;228.95;209.32;;;;;;;;;;5052969;28;20040;-66
2024/01/07 06:22:04;;;;;;;236.40;215.30;;;;;;;;;;5050474;28;20037;-66
2024/01/07 06:24:30;;;;;;;253.73;230.68;;;;;;;;;;5051185;28;20083;-66
2024/01/07 06:26:57;;;;;;;248.48;226.30;;;;;;;;;;5052054;28;20047;-67
2024/01/07 06:29:24;;;;;;;245.50;223.50;;;;;;;;;;5052278;28;20021;-66
2024/01/07 06:31:50;;;;;;;213.35;194.90;;;;;;;;;;5052649;28;20043;-66
2024/01/07 06:34:17;;;;;;;228.93;208.55;;;;;;;;;;5052756;28;20386;-66
2024/01/07 06:36:43;;;;;;;248.80;226.57;;;;;;;;;;5051851;28;20024;-66
2024/01/07 06:39:10;;;;;;;242.65;220.82;;;;;;;;;;5052477;28;20036;-66
2024/01/07 06:41:37;;;;;;;240.52;219.27;;;;;;;;;;5051679;28;20104;-67
2024/01/07 06:44:04;;;;;;;245.05;223.27;;;;;;;;;;5052115;28;20620;-66
2024/01/07 06:46:30;;;;;;;237.02;216.23;;;;;;;;;;5063540;28;20107;-67
2024/01/07 06:48:57;;;;;;;253.23;230.43;;;;;;;;;;5063829;28;20028;-68
2024/01/07 06:51:24;;;;;;;252.07;229.85;;;;;;;;;;5059571;28;20028;-67
2024/01/07 06:53:50;;;;;;;235.68;214.88;;;;;;;;;;5057547;28;20021;-67
2024/01/07 06:56:17;;;;;;;248.20;226.23;;;;;;;;;;5053464;28;20029;-69
2024/01/07 06:58:45;;;;;;;248.25;226.30;;;;;;;;;;5054650;28;20104;-67
2024/01/07 07:01:11;;;;;;;236.48;215.27;;;;;;;;;;5055754;28;20021;-66
2024/01/07 07:03:38;;;;;;;248.50;226.45;;;;;;;;;;5076531;22;20191;-68
2024/01/07 07:06:05;;;;;;;246.70;224.80;;;;;;;;;;5056694;28;21556;-66
2024/01/07 07:08:31;;;;;;;225.80;205.98;;;;;;;;;;5057446;28;20029;-66
2024/01/07 07:10:58;;;;;;;223.73;204.18;;;;;;;;;;5053384;28;20036;-66
2024/01/07 07:13:24;;;;;;;192.70;176.45;;;;;;;;;;5058162;28;20480;-67
2024/01/07 07:15:51;;;;;;;229.80;209.55;;;;;;;;;;5057441;28;20024;-67
2024/01/07 07:18:17;;;;;;;213.23;194.95;;;;;;;;;;5058019;28;20017;-67
2024/01/07 07:20:44;;;;;;;188.80;172.80;;;;;;;;;;5055196;28;20444;-67
2024/01/07 07:23:11;;;;;;;223.77;203.93;;;;;;;;;;5053600;28;20033;-68
2024/01/07 07:25:37;;;;;;;206.88;189.25;;;;;;;;;;5057965;28;20017;-67
2024/01/07 07:28:04;;;;;;;228.10;208.20;;;;;;;;;;5059295;28;20029;-66
2024/01/07 07:30:30;;;;;;;209.85;191.90;;;;;;;;;;5061723;28;20401;-68
2024/01/07 07:32:57;;;;;;;209.57;191.43;;;;;;;;;;5058895;28;20024;-68
2024/01/07 07:35:24;;;;;;;202.82;185.35;;;;;;;;;;5061900;28;20377;-67
2024/01/07 07:37:50;;;;;;;201.35;183.98;;;;;;;;;;5062593;28;20035;-68
2024/01/07 07:40:17;;;;;;;224.52;204.90;;;;;;;;;;5061842;28;20091;-68
2024/01/07 07:42:43;;;;;;;197.77;181.10;;;;;;;;;;5060361;28;20033;-67
2024/01/07 07:45:11;;;;;;;202.48;185.25;;;;;;;;;;5057662;28;20374;-67
2024/01/07 07:47:37;;;;;;;238.68;217.75;;;;;;;;;;5060754;28;20021;-68
2024/01/07 07:50:04;;;;;;;199.98;182.82;;;;;;;;;;5059587;28;20025;-69
2024/01/07 07:52:31;;;;;;;235.43;214.93;;;;;;;;;;5078391;22;20052;-67
2024/01/07 07:54:58;;;;;;;215.35;196.68;;;;;;;;;;5060028;28;20104;-67
2024/01/07 07:57:25;;;;;;;200.68;183.10;;;;;;;;;;5060011;28;20017;-66
2024/01/07 07:59:53;;;;;;;220.55;200.93;;;;;;;;;;5057883;28;20085;-67
2024/01/07 08:02:19;;;;;;;176.85;161.50;;;;;;;;;;5059525;28;20017;-67
2024/01/07 08:04:47;;;;;;;198.23;181.07;;;;;;;;;;5059497;28;20130;-68
2024/01/07 08:07:14;;;;;;;203.27;185.50;;;;;;;;;;5056724;28;20045;-66
2024/01/07 08:09:41;;;;;;;190.27;173.85;;;;;;;;;;5059012;28;20021;-67
2024/01/07 08:12:08;;;;;;;215.60;196.52;;;;;;;;;;5059024;28;20020;-67
2024/01/07 08:14:35;;;;;;;211.50;193.23;;;;;;;;;;5059013;28;20013;-68
2024/01/07 08:17:03;;;;;;;220.57;201.15;;;;;;;;;;5058710;28;20016;-68
2024/01/07 08:19:30;;;;;;;186.65;170.80;;;;;;;;;;5059388;28;20061;-67
2024/01/07 08:21:57;;;;;;;211.05;192.82;;;;;;;;;;5058566;28;20047;-68
2024/01/07 08:24:23;;;;;;;159.73;146.45;;;;;;;;;;5058157;28;20416;-68
2024/01/07 08:26:51;;;;;;;182.38;166.50;;;;;;;;;;5056221;28;20067;-68
2024/01/07 08:29:18;;;;;;;212.48;194.13;;;;;;;;;;5057574;28;20095;-68
2024/01/07 08:31:44;;;;;;;171.82;157.68;;;;;;;;;;5054441;28;20439;-66
2024/01/07 08:34:11;;;;;;;201.95;184.63;;;;;;;;;;5054095;28;20021;-68
2024/01/07 08:36:38;;;;;;;199.35;182.25;;;;;;;;;;5053807;28;20029;-68
2024/01/07 08:39:04;;;;;;;205.38;187.43;;;;;;;;;;5054714;28;20462;-68
2024/01/07 08:41:31;;;;;;;190.35;174.23;;;;;;;;;;5057085;28;20024;-68
2024/01/07 08:44:02;;;;;;;191.52;174.55;;;;;;;;;;5055227;28;20378;-67
2024/01/07 08:46:28;;;;;;;190.85;174.48;;;;;;;;;;5054991;28;21214;-66
2024/01/07 08:48:56;;;;;;;202.25;184.95;;;;;;;;;;5052114;28;20008;-66
2024/01/07 08:51:23;;;;;;;174.82;160.50;;;;;;;;;;5054997;28;20021;-65
2024/01/07 08:53:50;;;;;;;199.48;182.25;;;;;;;;;;5054666;28;20429;-68
2024/01/07 08:56:16;;;;;;;165.63;151.95;;;;;;;;;;5054184;28;20021;-68
2024/01/07 08:58:43;;;;;;;185.63;169.93;;;;;;;;;;5054018;28;20017;-68
2024/01/07 09:01:10;;;;;;;209.18;190.38;;;;;;;;;;5054126;28;20025;-67
2024/01/07 09:03:36;;;;;;;189.63;173.35;;;;;;;;;;5054211;28;20024;-68
2024/01/07 09:06:03;;;;;;;177.80;162.35;;;;;;;;;;5053756;28;20048;-67
2024/01/07 09:08:30;;;;;;;188.23;172.02;;;;;;;;;;5054095;28;20021;-68
2024/01/07 09:10:56;;;;;;;205.88;188.23;;;;;;;;;;5053920;28;20099;-67
2024/01/07 09:13:24;;;;;;;168.63;154.15;;;;;;;;;;5053537;28;20096;-69
2024/01/07 09:15:50;;;;;;;186.95;171.07;;;;;;;;;;5053863;28;20470;-67
2024/01/07 09:18:17;;;;;;;201.25;183.27;;;;;;;;;;5053887;28;20025;-68
2024/01/07 09:20:46;;;;;;;192.73;175.43;;;;;;;;;;5054037;28;20021;-69
2024/01/07 09:23:13;;;;;;;211.63;193.23;;;;;;;;;;5054307;28;20017;-68
2024/01/07 09:25:41;;;;;;;162.57;148.70;;;;;;;;;;5054552;28;20565;-72
2024/01/07 09:28:08;;;;;;;204.98;187.43;;;;;;;;;;5053062;28;20033;-69
2024/01/07 09:30:35;;;;;;;254.50;229.40;;;;;;;;;;5052957;28;20525;-70
2024/01/07 09:33:01;;;;;;;233.73;211.98;;;;;;;;;;5053316;28;20367;-71
2024/01/07 09:35:28;;;;;;;261.35;235.65;;;;;;;;;;5053974;28;20021;-70
2024/01/07 09:37:55;;;;;;;241.40;218.68;;;;;;;;;;5054202;28;20362;-70
2024/01/07 09:40:21;;;;;;;210.52;192.02;;;;;;;;;;5053933;28;20053;-71
2024/01/07 09:42:48;;;;;;;174.75;159.75;;;;;;;;;;5053792;28;20385;-72
2024/01/07 09:45:15;;;;;;;293.33;264.17;;;;;;;;;;5054219;28;20036;-70
2024/01/07 09:47:43;;;;;;;201.73;184.23;;;;;;;;;;5053646;28;20025;-68
2024/01/07 09:50:11;;;;;;;216.82;197.23;;;;;;;;;;5054234;28;20029;-68
2024/01/07 09:52:39;;;;;;;167.63;153.32;;;;;;;;;;5053972;28;20048;-67
2024/01/07 09:55:08;;;;;;;193.65;176.27;;;;;;;;;;5053713;28;20027;-68
2024/01/07 09:57:35;;;;;;;196.07;178.88;;;;;;;;;;5053419;28;20470;-68
2024/01/07 10:00:03;;;;;;;190.60;173.70;;;;;;;;;;5053614;28;20078;-68
2024/01/07 10:02:30;;;;;;;199.50;182.40;;;;;;;;;;5053445;28;20036;-68
2024/01/07 10:04:56;;;;;;;208.15;190.15;;;;;;;;;;5053371;28;20082;-68
2024/01/07 10:07:23;;;;;;;221.77;202.52;;;;;;;;;;5053225;28;20031;-68
2024/01/07 10:09:50;;;;;;;195.95;179.20;;;;;;;;;;5052643;28;20021;-69
2024/01/07 10:12:16;;;;;;;203.15;185.23;;;;;;;;;;5053031;28;20020;-73
2024/01/07 10:14:43;;;;;;;189.93;173.35;;;;;;;;;;5052995;28;20025;-68
2024/01/07 10:17:18;;;;;;;169.32;154.88;;;;;;;;;;5053068;28;20025;-68
2024/01/07 10:19:46;;;;;;;190.65;174.15;;;;;;;;;;5052719;28;20017;-67
2024/01/07 10:22:14;;;;;;;190.25;173.50;;;;;;;;;;5053166;28;20031;-68
2024/01/07 10:24:41;;;;;;;206.63;188.40;;;;;;;;;;5035630;28;20213;-69
2024/01/07 10:27:08;;;;;;;195.15;178.38;;;;;;;;;;5072590;22;20132;-69
2024/01/07 10:29:35;;;;;;;186.35;169.98;;;;;;;;;;5051244;28;20477;-69
2024/01/07 10:32:03;;;;;;;200.55;182.00;;;;;;;;;;5055559;28;20021;-68
2024/01/07 10:34:31;;;;;;;195.40;178.25;;;;;;;;;;5053364;28;20017;-69
2024/01/07 10:36:59;;;;;;;184.07;166.85;;;;;;;;;;5053622;28;20025;-67
2024/01/07 10:39:26;;;;;;;206.40;187.32;;;;;;;;;;5053418;28;20017;-68
2024/01/07 10:41:57;;;;;;;168.25;153.18;;;;;;;;;;5054238;28;20021;-66
2024/01/07 10:44:23;;;;;;;200.93;183.32;;;;;;;;;;5050655;28;20370;-67
2024/01/07 10:46:50;;;;;;;179.65;163.85;;;;;;;;;;5053107;28;20021;-69
2024/01/07 10:49:21;;;;;;;159.05;145.32;;;;;;;;;;5050916;28;20041;-68
2024/01/07 10:51:53;;;;;;;166.90;152.77;;;;;;;;;;5053175;28;20036;-71
2024/01/07 10:54:20;;;;;;;171.30;155.88;;;;;;;;;;5043174;28;20492;-65
2024/01/07 10:56:49;;;;;;;179.52;163.02;;;;;;;;;;5031785;28;20038;-65
2024/01/07 10:59:16;;;;;;;179.43;163.40;;;;;;;;;;5033042;28;20038;-67
2024/01/07 11:01:43;;;;;;;162.75;148.38;;;;;;;;;;5036207;28;20049;-66
2024/01/07 11:04:15;;;;;;;197.60;179.63;;;;;;;;;;5035378;28;20033;-65
2024/01/07 11:06:41;;;;;;;;;;;;;;;;;;5032003;28;20113;-66
2024/01/07 11:09:15;;;;;;;160.88;147.00;;;;;;;;;;5034433;28;19916;-67
2024/01/07 11:11:42;;;;;;;167.82;152.77;;;;;;;;;;5035587;28;20474;-66
2024/01/07 11:14:28;;;;;;;147.80;134.82;;;;;;;;;;5035294;28;20489;-66
2024/01/07 11:16:55;;;;;;;172.60;157.63;;;;;;;;;;5036479;28;20482;-67
2024/01/07 11:19:22;;;;;;;184.07;167.50;;;;;;;;;;5033004;28;20482;-70
2024/01/07 11:21:49;;;;;;;192.02;174.80;;;;;;;;;;5033818;28;20106;-66
2024/01/07 11:24:35;;;;;;;185.85;168.85;;;;;;;;;;5039997;28;20033;-66
2024/01/07 11:27:02;;;;;;;166.93;151.50;;;;;;;;;;5033614;28;20054;-67
2024/01/07 11:29:29;;;;;;;160.13;146.52;;;;;;;;;;5035446;28;20096;-67
2024/01/07 11:31:55;;;;;;;197.45;179.88;;;;;;;;;;5036626;28;20526;-66
2024/01/07 11:34:47;;;;;;;165.38;151.02;;;;;;;;;;5032889;28;20022;-66
2024/01/07 11:37:14;;;;;;;153.03;139.33;;;;;;;;;;5032776;28;20505;-66
2024/01/07 11:39:44;;;;;;;141.85;127.43;;;;;;;;;;5016911;28;20628;-64
2024/01/07 11:42:12;;;;;;;186.82;168.85;;;;;;;;;;5035846;28;20091;-66
2024/01/07 11:44:39;;;;;;;180.18;162.73;;;;;;;;;;5037598;28;20024;-66
2024/01/07 11:47:05;;;;;;;188.40;169.90;;;;;;;;;;5038889;28;20324;-66
2024/01/07 11:49:33;;;;;;;174.95;159.15;;;;;;;;;;5030953;28;20443;-66
2024/01/07 11:52:02;;;;;;;166.35;151.30;;;;;;;;;;5040693;28;20466;-66
2024/01/07 11:54:29;;;;;;;171.63;156.27;;;;;;;;;;5035059;28;20044;-66
2024/01/07 11:56:56;;;;;;;172.57;156.38;;;;;;;;;;5035065;28;20040;-66
2024/01/07 11:59:23;;;;;;;194.40;176.38;;;;;;;;;;5031134;28;20021;-66
2024/01/07 12:01:49;;;;;;;143.60;130.40;;;;;;;;;;5036270;28;20048;-65
2024/01/07 12:04:16;;;;;;;152.93;139.32;;;;;;;;;;5032021;28;20033;-66
2024/01/07 12:06:43;;;;;;;186.65;169.75;;;;;;;;;;5033696;28;20033;-65
2024/01/07 12:09:13;;;;;;;173.75;158.20;;;;;;;;;;5034365;28;20029;-64
2024/01/07 12:11:41;;;;;;;155.35;141.60;;;;;;;;;;5033060;28;20429;-64
2024/01/07 12:14:10;;;;;;;156.07;142.55;;;;;;;;;;5035929;28;20504;-65
2024/01/07 12:16:37;;;;;;;185.55;169.20;;;;;;;;;;5029817;28;20057;-65
2024/01/07 12:19:03;;;;;;;161.38;146.90;;;;;;;;;;5032470;28;20033;-65
2024/01/07 12:21:30;;;;;;;173.10;157.63;;;;;;;;;;5031249;28;20049;-65
2024/01/07 12:23:57;;;;;;;193.02;174.02;;;;;;;;;;5033591;28;20030;-66
2024/01/07 12:26:33;;;;;;;198.73;180.50;;;;;;;;;;5035214;28;20095;-66
2024/01/07 12:29:04;;;;;;;199.90;181.98;;;;;;;;;;5033980;28;20036;-68
2024/01/07 12:31:32;;;;;;;161.10;146.35;;;;;;;;;;5030192;28;20067;-66
2024/01/07 12:33:59;;;;;;;152.20;137.88;;;;;;;;;;5038134;28;20103;-67
2024/01/07 12:36:26;;;;;;;189.30;170.88;;;;;;;;;;5032316;28;20029;-67
2024/01/07 12:38:54;;;;;;;175.38;158.00;;;;;;;;;;5035815;28;20041;-65
2024/01/07 12:41:22;;;;;;;189.48;171.02;;;;;;;;;;5031320;28;20045;-64
2024/01/07 12:43:49;;;;;;;202.15;181.55;;;;;;;;;;5033658;28;20486;-67
2024/01/07 12:46:16;;;;;;;213.35;193.20;;;;;;;;;;5034407;28;20045;-68
2024/01/07 12:48:42;;;;;;;219.82;198.80;;;;;;;;;;5037904;28;20481;-66
2024/01/07 12:51:09;;;;;;;175.63;159.52;;;;;;;;;;5035598;28;20113;-65
2024/01/07 12:53:36;;;;;;;213.02;193.35;;;;;;;;;;5034320;28;20044;-65
2024/01/07 12:56:03;;;;;;;206.43;186.98;;;;;;;;;;5034454;28;20032;-66
2024/01/07 12:58:29;;;;;;;185.50;168.18;;;;;;;;;;5036043;28;20029;-66
2024/01/07 13:00:56;;;;;;;230.07;208.15;;;;;;;;;;5035690;28;20228;-66
2024/01/07 13:03:24;;;;;;;256.50;231.98;;;;;;;;;;5031688;28;20029;-64
2024/01/07 13:05:52;;;;;;;206.52;186.70;;;;;;;;;;5034703;28;20037;-64
2024/01/07 13:08:18;;;;;;;207.93;188.05;;;;;;;;;;5053806;28;20124;-63
2024/01/07 13:10:45;;;;;;;218.15;197.65;;;;;;;;;;5040386;28;20021;-64
2024/01/07 13:13:12;;;;;;;209.93;190.55;;;;;;;;;;5034303;28;20037;-65
2024/01/07 13:15:41;;;;;;;213.52;193.68;;;;;;;;;;5034782;28;20427;-65
2024/01/07 13:18:07;;;;;;;207.00;187.27;;;;;;;;;;5034378;28;20060;-65
2024/01/07 13:20:39;;;;;;;214.70;194.90;;;;;;;;;;5043047;28;20085;-68
2024/01/07 13:23:06;;;;;;;198.60;179.52;;;;;;;;;;5028113;28;20033;-68
2024/01/07 13:25:33;;;;;;;207.95;188.40;;;;;;;;;;5018100;28;20394;-66
2024/01/07 13:27:59;;;;;;;218.02;198.05;;;;;;;;;;5033500;28;20029;-68
2024/01/07 13:30:26;;;;;;;223.93;202.77;;;;;;;;;;5033670;28;20033;-65
2024/01/07 13:32:56;;;;;;;192.98;175.25;;;;;;;;;;5034080;28;20029;-66
2024/01/07 13:35:23;;;;;;;198.65;180.57;;;;;;;;;;5033571;28;20109;-67
2024/01/07 13:37:51;;;;;;;225.27;204.32;;;;;;;;;;5033758;28;20083;-66
2024/01/07 13:40:18;;;;;;;228.15;206.82;;;;;;;;;;5033800;28;20026;-64
2024/01/07 13:42:45;;;;;;;210.07;190.50;;;;;;;;;;5033837;28;20534;-66
2024/01/07 13:45:13;;;;;;;258.75;233.57;;;;;;;;;;5033943;28;20045;-66
2024/01/07 13:47:40;;;;;;;248.40;224.48;;;;;;;;;;5033565;28;20030;-65
2024/01/07 13:50:07;;;;;;;250.18;226.95;;;;;;;;;;5035260;28;20025;-65
2024/01/07 13:52:33;;;;;;;233.68;211.85;;;;;;;;;;5032737;28;20033;-65